sensor_id;sensor_type;location;lat;lon;timestamp;P1;durP1;ratioP1;P2;durP2;ratioP2
53521;SDS011;39398;48.382;9.802;2023-05-10T00:04:33;4.80;;;3.40;;
53521;SDS011;39398;48.382;9.802;2023-05-10T00:09:37;3.92;;;3.38;;
53521;SDS011;39398;48.382;9.802;2023-05-10T00:14:38;5.20;;;3.55;;
53521;SDS011;39398;48.382;9.802;2023-05-10T00:19:41;3.95;;;3.13;;
53521;SDS011;39398;48.382;9.802;2023-05-10T00:24:43;3.40;;;3.10;;
53521;SDS011;39398;48.382;9.802;2023-05-10T00:29:45;4.18;;;3.78;;
53521;SDS011;39398;48.382;9.802;2023-05-10T00:34:52;6.50;;;3.65;;
53521;SDS011;39398;48.382;9.802;2023-05-10T00:40:01;5.10;;;4.25;;
53521;SDS011;39398;48.382;9.802;2023-05-10T00:45:03;5.10;;;3.85;;
53521;SDS011;39398;48.382;9.802;2023-05-10T00:50:11;3.45;;;3.15;;
53521;SDS011;39398;48.382;9.802;2023-05-10T00:55:14;3.70;;;3.40;;
53521;SDS011;39398;48.382;9.802;2023-05-10T01:00:16;5.10;;;3.30;;
53521;SDS011;39398;48.382;9.802;2023-05-10T01:05:20;2.47;;;2.28;;
53521;SDS011;39398;48.382;9.802;2023-05-10T01:10:22;1.65;;;1.30;;
53521;SDS011;39398;48.382;9.802;2023-05-10T01:15:24;1.10;;;0.90;;
53521;SDS011;39398;48.382;9.802;2023-05-10T01:20:27;1.13;;;1.02;;
53521;SDS011;39398;48.382;9.802;2023-05-10T01:31:18;0.77;;;0.68;;
53521;SDS011;39398;48.382;9.802;2023-05-10T01:36:32;1.00;;;0.90;;
53521;SDS011;39398;48.382;9.802;2023-05-10T01:41:43;0.60;;;0.60;;
53521;SDS011;39398;48.382;9.802;2023-05-10T01:46:50;0.63;;;0.60;;
53521;SDS011;39398;48.382;9.802;2023-05-10T01:52:03;0.43;;;0.40;;
53521;SDS011;39398;48.382;9.802;2023-05-10T01:57:09;0.40;;;0.40;;
53521;SDS011;39398;48.382;9.802;2023-05-10T02:02:14;1.33;;;0.40;;
53521;SDS011;39398;48.382;9.802;2023-05-10T02:07:19;1.73;;;0.30;;
53521;SDS011;39398;48.382;9.802;2023-05-10T02:12:22;1.75;;;0.38;;
53521;SDS011;39398;48.382;9.802;2023-05-10T02:17:26;1.08;;;0.20;;
53521;SDS011;39398;48.382;9.802;2023-05-10T02:22:32;0.20;;;0.20;;
53521;SDS011;39398;48.382;9.802;2023-05-10T02:27:37;0.40;;;0.40;;
53521;SDS011;39398;48.382;9.802;2023-05-10T02:37:50;0.30;;;0.30;;
53521;SDS011;39398;48.382;9.802;2023-05-10T02:42:52;0.43;;;0.30;;
53521;SDS011;39398;48.382;9.802;2023-05-10T02:47:59;0.57;;;0.40;;
53521;SDS011;39398;48.382;9.802;2023-05-10T02:53:06;1.48;;;0.50;;
53521;SDS011;39398;48.382;9.802;2023-05-10T02:58:12;0.40;;;0.40;;
53521;SDS011;39398;48.382;9.802;2023-05-10T03:03:16;2.15;;;0.50;;
53521;SDS011;39398;48.382;9.802;2023-05-10T03:08:19;1.95;;;0.60;;
53521;SDS011;39398;48.382;9.802;2023-05-10T03:13:23;3.15;;;0.60;;
53521;SDS011;39398;48.382;9.802;2023-05-10T03:18:33;0.40;;;0.40;;
53521;SDS011;39398;48.382;9.802;2023-05-10T03:23:46;0.40;;;0.40;;
53521;SDS011;39398;48.382;9.802;2023-05-10T03:28:51;1.02;;;0.65;;
53521;SDS011;39398;48.382;9.802;2023-05-10T03:33:56;1.10;;;0.80;;
53521;SDS011;39398;48.382;9.802;2023-05-10T03:39:02;0.63;;;0.60;;
53521;SDS011;39398;48.382;9.802;2023-05-10T03:44:04;1.08;;;0.75;;
53521;SDS011;39398;48.382;9.802;2023-05-10T03:49:05;0.95;;;0.80;;
53521;SDS011;39398;48.382;9.802;2023-05-10T03:54:08;2.08;;;0.80;;
53521;SDS011;39398;48.382;9.802;2023-05-10T03:59:10;1.27;;;1.00;;
53521;SDS011;39398;48.382;9.802;2023-05-10T04:04:11;0.73;;;0.73;;
53521;SDS011;39398;48.382;9.802;2023-05-10T04:09:28;1.30;;;1.20;;
53521;SDS011;39398;48.382;9.802;2023-05-10T04:14:30;0.70;;;0.70;;
53521;SDS011;39398;48.382;9.802;2023-05-10T04:19:32;3.33;;;1.10;;
53521;SDS011;39398;48.382;9.802;2023-05-10T04:24:36;1.00;;;1.00;;
53521;SDS011;39398;48.382;9.802;2023-05-10T04:29:38;2.05;;;1.25;;
53521;SDS011;39398;48.382;9.802;2023-05-10T04:34:42;0.88;;;0.85;;
53521;SDS011;39398;48.382;9.802;2023-05-10T04:39:45;0.82;;;0.82;;
53521;SDS011;39398;48.382;9.802;2023-05-10T04:44:46;0.88;;;0.80;;
53521;SDS011;39398;48.382;9.802;2023-05-10T04:49:48;0.90;;;0.90;;
53521;SDS011;39398;48.382;9.802;2023-05-10T04:54:51;5.18;;;2.28;;
53521;SDS011;39398;48.382;9.802;2023-05-10T04:59:52;1.42;;;1.10;;
53521;SDS011;39398;48.382;9.802;2023-05-10T05:04:56;1.38;;;0.90;;
53521;SDS011;39398;48.382;9.802;2023-05-10T05:10:00;4.18;;;1.20;;
53521;SDS011;39398;48.382;9.802;2023-05-10T05:15:04;3.05;;;1.17;;
53521;SDS011;39398;48.382;9.802;2023-05-10T05:20:10;0.98;;;0.80;;
53521;SDS011;39398;48.382;9.802;2023-05-10T05:25:13;3.13;;;1.20;;
53521;SDS011;39398;48.382;9.802;2023-05-10T05:30:17;6.38;;;1.27;;
53521;SDS011;39398;48.382;9.802;2023-05-10T05:35:26;4.75;;;1.50;;
53521;SDS011;39398;48.382;9.802;2023-05-10T05:40:29;3.17;;;1.42;;
53521;SDS011;39398;48.382;9.802;2023-05-10T05:45:30;1.70;;;1.13;;
53521;SDS011;39398;48.382;9.802;2023-05-10T05:50:32;2.45;;;1.00;;
53521;SDS011;39398;48.382;9.802;2023-05-10T05:55:35;8.15;;;1.20;;
53521;SDS011;39398;48.382;9.802;2023-05-10T06:00:37;3.92;;;1.15;;
53521;SDS011;39398;48.382;9.802;2023-05-10T06:05:38;3.70;;;1.40;;
53521;SDS011;39398;48.382;9.802;2023-05-10T06:10:42;1.77;;;1.10;;
53521;SDS011;39398;48.382;9.802;2023-05-10T06:15:43;3.05;;;1.40;;
53521;SDS011;39398;48.382;9.802;2023-05-10T06:20:45;3.38;;;1.95;;
53521;SDS011;39398;48.382;9.802;2023-05-10T06:25:48;2.75;;;1.20;;
53521;SDS011;39398;48.382;9.802;2023-05-10T06:30:53;4.80;;;1.23;;
53521;SDS011;39398;48.382;9.802;2023-05-10T06:35:54;4.68;;;1.50;;
53521;SDS011;39398;48.382;9.802;2023-05-10T06:41:20;2.75;;;1.25;;
53521;SDS011;39398;48.382;9.802;2023-05-10T06:46:24;3.80;;;1.30;;
53521;SDS011;39398;48.382;9.802;2023-05-10T06:51:26;3.63;;;1.63;;
53521;SDS011;39398;48.382;9.802;2023-05-10T06:56:33;5.25;;;1.90;;
53521;SDS011;39398;48.382;9.802;2023-05-10T07:01:37;3.92;;;1.98;;
53521;SDS011;39398;48.382;9.802;2023-05-10T07:06:39;1.67;;;1.20;;
53521;SDS011;39398;48.382;9.802;2023-05-10T07:11:44;1.17;;;1.08;;
53521;SDS011;39398;48.382;9.802;2023-05-10T07:16:46;3.40;;;1.30;;
53521;SDS011;39398;48.382;9.802;2023-05-10T07:21:47;2.63;;;0.90;;
53521;SDS011;39398;48.382;9.802;2023-05-10T07:26:52;2.10;;;1.20;;
53521;SDS011;39398;48.382;9.802;2023-05-10T07:31:54;1.77;;;1.02;;
53521;SDS011;39398;48.382;9.802;2023-05-10T07:36:59;2.78;;;1.10;;
53521;SDS011;39398;48.382;9.802;2023-05-10T07:42:02;1.00;;;1.00;;
53521;SDS011;39398;48.382;9.802;2023-05-10T07:47:07;2.67;;;1.10;;
53521;SDS011;39398;48.382;9.802;2023-05-10T07:52:09;1.30;;;0.80;;
53521;SDS011;39398;48.382;9.802;2023-05-10T07:57:12;2.33;;;1.05;;
53521;SDS011;39398;48.382;9.802;2023-05-10T08:02:14;3.90;;;1.20;;
53521;SDS011;39398;48.382;9.802;2023-05-10T08:07:18;1.50;;;1.00;;
53521;SDS011;39398;48.382;9.802;2023-05-10T08:12:22;0.90;;;0.90;;
53521;SDS011;39398;48.382;9.802;2023-05-10T08:17:23;0.85;;;0.82;;
53521;SDS011;39398;48.382;9.802;2023-05-10T08:22:25;1.20;;;0.85;;
53521;SDS011;39398;48.382;9.802;2023-05-10T08:27:28;2.50;;;0.90;;
53521;SDS011;39398;48.382;9.802;2023-05-10T08:32:29;0.90;;;0.90;;
53521;SDS011;39398;48.382;9.802;2023-05-10T08:37:31;1.20;;;0.80;;
53521;SDS011;39398;48.382;9.802;2023-05-10T08:42:36;0.90;;;0.80;;
53521;SDS011;39398;48.382;9.802;2023-05-10T08:47:42;1.45;;;0.60;;
53521;SDS011;39398;48.382;9.802;2023-05-10T08:52:45;0.80;;;0.80;;
53521;SDS011;39398;48.382;9.802;2023-05-10T08:57:53;1.20;;;0.80;;
53521;SDS011;39398;48.382;9.802;2023-05-10T09:02:54;5.55;;;0.90;;
53521;SDS011;39398;48.382;9.802;2023-05-10T09:14:01;7.43;;;5.18;;
53521;SDS011;39398;48.382;9.802;2023-05-10T09:19:03;0.82;;;0.82;;
53521;SDS011;39398;48.382;9.802;2023-05-10T09:24:05;1.63;;;0.70;;
53521;SDS011;39398;48.382;9.802;2023-05-10T09:29:08;0.63;;;0.63;;
53521;SDS011;39398;48.382;9.802;2023-05-10T09:34:10;0.88;;;0.60;;
53521;SDS011;39398;48.382;9.802;2023-05-10T09:39:12;2.22;;;0.57;;
53521;SDS011;39398;48.382;9.802;2023-05-10T09:44:18;0.50;;;0.50;;
53521;SDS011;39398;48.382;9.802;2023-05-10T09:49:21;0.60;;;0.60;;
53521;SDS011;39398;48.382;9.802;2023-05-10T09:54:33;0.63;;;0.63;;
53521;SDS011;39398;48.382;9.802;2023-05-10T09:59:38;1.00;;;0.55;;
53521;SDS011;39398;48.382;9.802;2023-05-10T10:04:49;0.75;;;0.50;;
53521;SDS011;39398;48.382;9.802;2023-05-10T10:09:51;0.50;;;0.50;;
53521;SDS011;39398;48.382;9.802;2023-05-10T10:14:54;2.55;;;0.60;;
53521;SDS011;39398;48.382;9.802;2023-05-10T10:19:59;0.65;;;0.45;;
53521;SDS011;39398;48.382;9.802;2023-05-10T10:25:04;0.52;;;0.52;;
53521;SDS011;39398;48.382;9.802;2023-05-10T10:30:21;0.90;;;0.65;;
53521;SDS011;39398;48.382;9.802;2023-05-10T10:35:28;0.63;;;0.60;;
53521;SDS011;39398;48.382;9.802;2023-05-10T10:40:32;2.05;;;0.70;;
53521;SDS011;39398;48.382;9.802;2023-05-10T10:45:38;0.45;;;0.45;;
53521;SDS011;39398;48.382;9.802;2023-05-10T10:50:45;0.52;;;0.50;;
53521;SDS011;39398;48.382;9.802;2023-05-10T10:55:51;1.98;;;0.52;;
53521;SDS011;39398;48.382;9.802;2023-05-10T11:01:13;0.63;;;0.50;;
53521;SDS011;39398;48.382;9.802;2023-05-10T11:06:23;0.95;;;0.63;;
53521;SDS011;39398;48.382;9.802;2023-05-10T11:11:32;0.68;;;0.68;;
53521;SDS011;39398;48.382;9.802;2023-05-10T11:16:42;1.13;;;0.60;;
53521;SDS011;39398;48.382;9.802;2023-05-10T11:21:46;0.43;;;0.43;;
53521;SDS011;39398;48.382;9.802;2023-05-10T11:26:49;0.60;;;0.55;;
53521;SDS011;39398;48.382;9.802;2023-05-10T11:31:56;1.55;;;0.70;;
53521;SDS011;39398;48.382;9.802;2023-05-10T11:36:59;0.60;;;0.60;;
53521;SDS011;39398;48.382;9.802;2023-05-10T11:42:04;0.50;;;0.50;;
53521;SDS011;39398;48.382;9.802;2023-05-10T11:47:07;2.35;;;0.50;;
53521;SDS011;39398;48.382;9.802;2023-05-10T11:52:11;0.75;;;0.65;;
53521;SDS011;39398;48.382;9.802;2023-05-10T11:57:12;1.83;;;0.70;;
53521;SDS011;39398;48.382;9.802;2023-05-10T12:02:18;0.60;;;0.60;;
53521;SDS011;39398;48.382;9.802;2023-05-10T12:12:26;1.85;;;0.85;;
53521;SDS011;39398;48.382;9.802;2023-05-10T12:17:31;2.15;;;1.02;;
53521;SDS011;39398;48.382;9.802;2023-05-10T12:22:33;1.15;;;0.80;;
53521;SDS011;39398;48.382;9.802;2023-05-10T12:27:35;9.88;;;7.88;;
53521;SDS011;39398;48.382;9.802;2023-05-10T12:32:41;0.90;;;0.90;;
53521;SDS011;39398;48.382;9.802;2023-05-10T12:37:45;1.88;;;0.70;;
53521;SDS011;39398;48.382;9.802;2023-05-10T12:42:47;4.55;;;2.97;;
53521;SDS011;39398;48.382;9.802;2023-05-10T12:47:50;1.25;;;1.10;;
53521;SDS011;39398;48.382;9.802;2023-05-10T12:52:51;1.48;;;1.05;;
53521;SDS011;39398;48.382;9.802;2023-05-10T12:57:53;0.60;;;0.60;;
53521;SDS011;39398;48.382;9.802;2023-05-10T13:02:56;1.02;;;0.85;;
53521;SDS011;39398;48.382;9.802;2023-05-10T13:07:58;0.80;;;0.80;;
53521;SDS011;39398;48.382;9.802;2023-05-10T13:13:00;1.73;;;0.70;;
53521;SDS011;39398;48.382;9.802;2023-05-10T13:18:05;0.75;;;0.75;;
53521;SDS011;39398;48.382;9.802;2023-05-10T13:23:07;1.95;;;0.95;;
53521;SDS011;39398;48.382;9.802;2023-05-10T13:28:09;1.00;;;0.80;;
53521;SDS011;39398;48.382;9.802;2023-05-10T13:33:12;0.85;;;0.82;;
53521;SDS011;39398;48.382;9.802;2023-05-10T13:38:13;0.68;;;0.68;;
53521;SDS011;39398;48.382;9.802;2023-05-10T13:43:15;0.73;;;0.73;;
53521;SDS011;39398;48.382;9.802;2023-05-10T13:48:18;1.10;;;0.80;;
53521;SDS011;39398;48.382;9.802;2023-05-10T13:53:22;1.25;;;0.77;;
53521;SDS011;39398;48.382;9.802;2023-05-10T13:58:24;1.50;;;1.10;;
53521;SDS011;39398;48.382;9.802;2023-05-10T14:03:27;1.85;;;1.00;;
53521;SDS011;39398;48.382;9.802;2023-05-10T14:08:29;2.20;;;0.98;;
53521;SDS011;39398;48.382;9.802;2023-05-10T14:13:30;2.15;;;1.00;;
53521;SDS011;39398;48.382;9.802;2023-05-10T14:18:38;1.50;;;1.05;;
53521;SDS011;39398;48.382;9.802;2023-05-10T14:23:40;1.70;;;1.50;;
53521;SDS011;39398;48.382;9.802;2023-05-10T14:28:44;14.15;;;9.77;;
53521;SDS011;39398;48.382;9.802;2023-05-10T14:39:53;1.25;;;1.10;;
53521;SDS011;39398;48.382;9.802;2023-05-10T14:44:57;3.83;;;1.10;;
53521;SDS011;39398;48.382;9.802;2023-05-10T14:49:59;2.40;;;0.90;;
53521;SDS011;39398;48.382;9.802;2023-05-10T14:55:02;3.70;;;0.90;;
53521;SDS011;39398;48.382;9.802;2023-05-10T15:00:08;1.15;;;0.90;;
53521;SDS011;39398;48.382;9.802;2023-05-10T15:05:12;0.85;;;0.82;;
53521;SDS011;39398;48.382;9.802;2023-05-10T15:10:17;2.80;;;1.15;;
53521;SDS011;39398;48.382;9.802;2023-05-10T15:15:19;3.50;;;1.00;;
53521;SDS011;39398;48.382;9.802;2023-05-10T15:20:23;1.25;;;1.05;;
53521;SDS011;39398;48.382;9.802;2023-05-10T15:25:27;2.67;;;1.00;;
53521;SDS011;39398;48.382;9.802;2023-05-10T15:30:28;2.00;;;1.00;;
53521;SDS011;39398;48.382;9.802;2023-05-10T15:35:30;4.13;;;1.10;;
53521;SDS011;39398;48.382;9.802;2023-05-10T15:40:33;2.75;;;1.00;;
53521;SDS011;39398;48.382;9.802;2023-05-10T15:45:35;1.05;;;0.93;;
53521;SDS011;39398;48.382;9.802;2023-05-10T15:50:38;1.83;;;1.00;;
53521;SDS011;39398;48.382;9.802;2023-05-10T15:55:41;1.55;;;1.00;;
53521;SDS011;39398;48.382;9.802;2023-05-10T16:00:42;2.72;;;1.20;;
53521;SDS011;39398;48.382;9.802;2023-05-10T16:05:51;3.80;;;1.27;;
53521;SDS011;39398;48.382;9.802;2023-05-10T16:10:55;3.33;;;0.90;;
53521;SDS011;39398;48.382;9.802;2023-05-10T16:15:59;6.05;;;3.25;;
53521;SDS011;39398;48.382;9.802;2023-05-10T16:21:02;6.05;;;2.28;;
53521;SDS011;39398;48.382;9.802;2023-05-10T16:26:08;6.00;;;3.00;;
53521;SDS011;39398;48.382;9.802;2023-05-10T16:31:09;6.43;;;3.42;;
53521;SDS011;39398;48.382;9.802;2023-05-10T16:36:11;14.98;;;7.20;;
53521;SDS011;39398;48.382;9.802;2023-05-10T16:46:46;6.82;;;3.60;;
53521;SDS011;39398;48.382;9.802;2023-05-10T16:51:48;16.55;;;8.70;;
53521;SDS011;39398;48.382;9.802;2023-05-10T16:56:50;5.07;;;3.33;;
53521;SDS011;39398;48.382;9.802;2023-05-10T17:01:52;6.25;;;3.50;;
53521;SDS011;39398;48.382;9.802;2023-05-10T17:06:55;4.88;;;3.05;;
53521;SDS011;39398;48.382;9.802;2023-05-10T17:11:58;7.03;;;4.70;;
53521;SDS011;39398;48.382;9.802;2023-05-10T17:16:59;4.60;;;3.50;;
53521;SDS011;39398;48.382;9.802;2023-05-10T17:22:01;4.72;;;3.53;;
53521;SDS011;39398;48.382;9.802;2023-05-10T17:27:04;4.35;;;2.90;;
53521;SDS011;39398;48.382;9.802;2023-05-10T17:38:17;4.20;;;2.67;;
53521;SDS011;39398;48.382;9.802;2023-05-10T17:43:20;4.95;;;2.78;;
53521;SDS011;39398;48.382;9.802;2023-05-10T17:48:21;5.85;;;3.17;;
53521;SDS011;39398;48.382;9.802;2023-05-10T17:53:28;7.03;;;3.78;;
53521;SDS011;39398;48.382;9.802;2023-05-10T17:58:36;3.63;;;2.90;;
53521;SDS011;39398;48.382;9.802;2023-05-10T18:03:37;6.43;;;2.90;;
53521;SDS011;39398;48.382;9.802;2023-05-10T18:08:41;6.05;;;3.55;;
53521;SDS011;39398;48.382;9.802;2023-05-10T18:13:44;5.55;;;2.95;;
53521;SDS011;39398;48.382;9.802;2023-05-10T18:18:48;6.00;;;3.40;;
53521;SDS011;39398;48.382;9.802;2023-05-10T18:23:50;4.53;;;3.20;;
53521;SDS011;39398;48.382;9.802;2023-05-10T18:28:55;5.60;;;2.90;;
53521;SDS011;39398;48.382;9.802;2023-05-10T18:34:00;5.25;;;3.08;;
53521;SDS011;39398;48.382;9.802;2023-05-10T18:39:02;5.78;;;3.47;;
53521;SDS011;39398;48.382;9.802;2023-05-10T18:44:07;6.03;;;2.83;;
53521;SDS011;39398;48.382;9.802;2023-05-10T18:49:09;9.35;;;4.40;;
53521;SDS011;39398;48.382;9.802;2023-05-10T18:54:13;6.88;;;3.47;;
53521;SDS011;39398;48.382;9.802;2023-05-10T18:59:16;7.25;;;4.78;;
53521;SDS011;39398;48.382;9.802;2023-05-10T19:04:18;5.07;;;3.05;;
53521;SDS011;39398;48.382;9.802;2023-05-10T19:09:24;5.93;;;3.50;;
53521;SDS011;39398;48.382;9.802;2023-05-10T19:14:30;5.10;;;3.47;;
53521;SDS011;39398;48.382;9.802;2023-05-10T19:19:32;6.10;;;3.92;;
53521;SDS011;39398;48.382;9.802;2023-05-10T19:24:34;6.50;;;4.78;;
53521;SDS011;39398;48.382;9.802;2023-05-10T19:29:40;8.07;;;4.88;;
53521;SDS011;39398;48.382;9.802;2023-05-10T19:34:42;4.35;;;3.22;;
53521;SDS011;39398;48.382;9.802;2023-05-10T19:39:43;4.85;;;3.08;;
53521;SDS011;39398;48.382;9.802;2023-05-10T19:44:47;3.83;;;2.63;;
53521;SDS011;39398;48.382;9.802;2023-05-10T19:49:48;3.90;;;2.38;;
53521;SDS011;39398;48.382;9.802;2023-05-10T19:54:50;5.85;;;2.85;;
53521;SDS011;39398;48.382;9.802;2023-05-10T19:59:53;4.80;;;2.92;;
53521;SDS011;39398;48.382;9.802;2023-05-10T20:04:56;5.43;;;2.47;;
53521;SDS011;39398;48.382;9.802;2023-05-10T20:16:16;13.82;;;8.93;;
53521;SDS011;39398;48.382;9.802;2023-05-10T20:21:18;19.85;;;11.15;;
53521;SDS011;39398;48.382;9.802;2023-05-10T20:26:20;6.72;;;4.68;;
53521;SDS011;39398;48.382;9.802;2023-05-10T20:31:23;5.28;;;3.50;;
53521;SDS011;39398;48.382;9.802;2023-05-10T20:36:25;5.70;;;2.60;;
53521;SDS011;39398;48.382;9.802;2023-05-10T20:41:27;6.63;;;2.80;;
53521;SDS011;39398;48.382;9.802;2023-05-10T20:46:30;4.78;;;2.17;;
53521;SDS011;39398;48.382;9.802;2023-05-10T20:51:32;3.33;;;2.40;;
53521;SDS011;39398;48.382;9.802;2023-05-10T20:56:35;8.63;;;2.30;;
53521;SDS011;39398;48.382;9.802;2023-05-10T21:01:38;4.25;;;2.55;;
53521;SDS011;39398;48.382;9.802;2023-05-10T21:06:40;6.78;;;3.00;;
53521;SDS011;39398;48.382;9.802;2023-05-10T21:11:57;9.82;;;6.10;;
53521;SDS011;39398;48.382;9.802;2023-05-10T21:17:00;8.40;;;5.68;;
53521;SDS011;39398;48.382;9.802;2023-05-10T21:22:02;11.95;;;5.47;;
53521;SDS011;39398;48.382;9.802;2023-05-10T21:27:03;5.88;;;4.35;;
53521;SDS011;39398;48.382;9.802;2023-05-10T21:32:06;9.80;;;5.15;;
53521;SDS011;39398;48.382;9.802;2023-05-10T21:37:09;8.07;;;4.57;;
53521;SDS011;39398;48.382;9.802;2023-05-10T21:42:11;4.85;;;3.85;;
53521;SDS011;39398;48.382;9.802;2023-05-10T21:47:14;3.88;;;2.67;;
53521;SDS011;39398;48.382;9.802;2023-05-10T21:52:15;2.75;;;2.47;;
53521;SDS011;39398;48.382;9.802;2023-05-10T21:57:17;4.68;;;2.42;;
53521;SDS011;39398;48.382;9.802;2023-05-10T22:02:20;2.95;;;2.30;;
53521;SDS011;39398;48.382;9.802;2023-05-10T22:07:22;5.00;;;2.60;;
53521;SDS011;39398;48.382;9.802;2023-05-10T22:12:24;4.05;;;2.30;;
53521;SDS011;39398;48.382;9.802;2023-05-10T22:17:34;3.90;;;2.53;;
53521;SDS011;39398;48.382;9.802;2023-05-10T22:22:35;2.72;;;2.33;;
53521;SDS011;39398;48.382;9.802;2023-05-10T22:27:44;3.97;;;2.28;;
53521;SDS011;39398;48.382;9.802;2023-05-10T22:32:52;3.17;;;2.35;;
53521;SDS011;39398;48.382;9.802;2023-05-10T22:37:56;2.60;;;2.40;;
53521;SDS011;39398;48.382;9.802;2023-05-10T22:42:58;3.10;;;2.28;;
53521;SDS011;39398;48.382;9.802;2023-05-10T22:48:01;3.78;;;2.60;;
53521;SDS011;39398;48.382;9.802;2023-05-10T22:53:07;6.68;;;2.58;;
53521;SDS011;39398;48.382;9.802;2023-05-10T22:58:09;3.70;;;2.60;;
53521;SDS011;39398;48.382;9.802;2023-05-10T23:03:12;4.55;;;2.53;;
53521;SDS011;39398;48.382;9.802;2023-05-10T23:08:14;4.30;;;2.45;;
53521;SDS011;39398;48.382;9.802;2023-05-10T23:13:18;4.50;;;2.25;;
53521;SDS011;39398;48.382;9.802;2023-05-10T23:18:21;4.40;;;1.63;;
53521;SDS011;39398;48.382;9.802;2023-05-10T23:23:22;2.80;;;1.83;;
53521;SDS011;39398;48.382;9.802;2023-05-10T23:28:24;2.75;;;1.80;;
53521;SDS011;39398;48.382;9.802;2023-05-10T23:33:28;3.00;;;1.60;;
53521;SDS011;39398;48.382;9.802;2023-05-10T23:38:30;2.15;;;1.70;;
53521;SDS011;39398;48.382;9.802;2023-05-10T23:43:35;5.07;;;1.77;;
53521;SDS011;39398;48.382;9.802;2023-05-10T23:48:38;4.28;;;2.00;;
53521;SDS011;39398;48.382;9.802;2023-05-10T23:53:42;3.28;;;1.92;;
53521;SDS011;39398;48.382;9.802;2023-05-10T23:58:43;2.42;;;2.00;;
